createdAt,value
2017-11-10T00:00:20.130Z,93.77
2017-11-10T00:02:48.487Z,86.03
2017-11-10T00:05:17.543Z,104.67
2017-11-10T00:07:47.538Z,97.83
2017-11-10T00:10:16.162Z,103.57
2017-11-10T00:12:44.555Z,110.10
2017-11-10T00:15:14.507Z,100.07
2017-11-10T00:17:42.884Z,101.83
2017-11-10T00:20:11.261Z,98.93
2017-11-10T00:22:39.636Z,100.57
2017-11-10T00:25:08.014Z,102.70
2017-11-10T00:27:36.539Z,107.90
2017-11-10T00:30:05.607Z,96.27
2017-11-10T00:32:34.070Z,93.97
2017-11-10T00:35:02.704Z,98.30
2017-11-10T00:37:32.208Z,93.00
2017-11-10T00:40:00.582Z,99.60
2017-11-10T00:42:29.034Z,99.97
2017-11-10T00:44:57.412Z,92.60
2017-11-10T00:47:25.840Z,104.80
2017-11-10T00:49:54.396Z,96.90
2017-11-10T00:52:23.447Z,98.67
2017-11-10T00:54:52.630Z,106.77
2017-11-10T00:57:21.194Z,92.70
2017-11-10T00:59:50.207Z,101.70
2017-11-10T01:02:19.355Z,109.20
2017-11-10T01:04:47.889Z,106.03
2017-11-10T01:07:17.134Z,115.37
2017-11-10T01:09:45.473Z,115.37
2017-11-10T01:12:14.945Z,110.80
2017-11-10T01:14:43.694Z,104.73
2017-11-10T01:17:13.022Z,115.53
2017-11-10T01:19:42.319Z,102.53
2017-11-10T01:22:16.550Z,111.37
2017-11-10T01:24:45.056Z,100.90
2017-11-10T01:27:13.428Z,81.80
2017-11-10T01:29:42.270Z,100.67
2017-11-10T01:32:10.819Z,92.70
2017-11-10T01:34:39.204Z,118.47
2017-11-10T01:37:07.604Z,100.27
2017-11-10T01:39:36.847Z,108.90
2017-11-10T01:42:05.234Z,105.03
2017-11-10T01:44:34.119Z,114.90
2017-11-10T01:47:02.671Z,106.83
2017-11-10T01:49:31.001Z,108.13
2017-11-10T01:52:00.383Z,110.53
2017-11-10T01:54:29.853Z,115.67
2017-11-10T01:56:58.203Z,119.20
2017-11-10T01:59:26.572Z,105.97
2017-11-10T02:01:58.910Z,98.27
2017-11-10T02:04:27.260Z,89.93
2017-11-10T02:06:56.655Z,100.77
2017-11-10T02:09:25.104Z,106.80
2017-11-10T02:11:55.327Z,104.30
2017-11-10T02:14:23.848Z,101.10
2017-11-10T02:16:52.203Z,103.33
2017-11-10T02:19:21.322Z,94.23
2017-11-10T02:21:49.717Z,92.90
2017-11-10T02:24:18.046Z,89.20
2017-11-10T02:26:47.172Z,85.63
2017-11-10T02:29:16.667Z,109.93
2017-11-10T02:31:45.854Z,106.23
2017-11-10T02:34:15.130Z,99.50
2017-11-10T02:36:44.805Z,108.80
2017-11-10T02:39:13.177Z,102.63
2017-11-10T02:41:41.543Z,109.13
2017-11-10T02:44:09.906Z,120.80
2017-11-10T02:46:39.014Z,99.90
2017-11-10T02:49:07.355Z,110.73
2017-11-10T02:51:35.723Z,100.03
2017-11-10T02:54:04.057Z,115.23
2017-11-10T02:56:32.398Z,109.37
2017-11-10T02:59:01.220Z,104.53
2017-11-10T03:01:29.567Z,111.57
2017-11-10T03:03:57.927Z,119.73
2017-11-10T03:06:27.088Z,124.03
2017-11-10T03:08:55.438Z,120.93
2017-11-10T03:11:25.162Z,96.83
2017-11-10T03:13:53.555Z,98.30
2017-11-10T03:16:22.436Z,102.47
2017-11-10T03:18:50.796Z,103.80
2017-11-10T03:21:21.050Z,100.40
2017-11-10T03:23:49.668Z,111.27
2017-11-10T03:26:18.025Z,105.13
2017-11-10T03:28:46.386Z,100.67
2017-11-10T03:31:14.769Z,104.23
2017-11-10T03:33:43.119Z,102.67
2017-11-10T03:36:12.312Z,109.13
2017-11-10T03:38:40.691Z,103.73
2017-11-10T03:41:09.842Z,119.40
2017-11-10T03:43:38.767Z,108.33
2017-11-10T03:46:07.126Z,113.97
2017-11-10T03:48:35.464Z,115.13
2017-11-10T03:51:04.481Z,106.50
2017-11-10T03:53:32.855Z,103.03
2017-11-10T03:56:01.214Z,95.20
2017-11-10T03:58:30.311Z,106.27
2017-11-10T04:00:58.646Z,122.17
2017-11-10T04:03:26.994Z,114.77
2017-11-10T04:05:55.445Z,115.20
2017-11-10T04:08:23.786Z,107.50
2017-11-10T04:10:52.145Z,113.27
2017-11-10T04:13:20.513Z,86.90
2017-11-10T04:15:48.874Z,105.47
2017-11-10T04:18:17.890Z,95.73
2017-11-10T04:20:46.289Z,113.00
2017-11-10T04:23:14.912Z,92.83
2017-11-10T04:25:43.978Z,83.37
2017-11-10T04:28:12.411Z,103.43
2017-11-10T04:30:42.431Z,100.67
2017-11-10T04:33:11.428Z,97.30
2017-11-10T04:35:40.018Z,96.43
2017-11-10T04:38:08.371Z,85.20
2017-11-10T04:40:36.840Z,111.37
2017-11-10T04:43:05.997Z,89.83
2017-11-10T04:45:35.174Z,95.13
2017-11-10T04:48:03.760Z,100.13
2017-11-10T04:50:33.647Z,102.13
2017-11-10T04:53:02.628Z,97.20
2017-11-10T04:55:30.976Z,104.10
2017-11-10T04:58:00.154Z,95.17
2017-11-10T05:00:28.516Z,97.83
2017-11-10T05:05:28.031Z,99.27
2017-11-10T05:07:56.588Z,83.37
2017-11-10T05:10:24.943Z,101.20
2017-11-10T05:12:53.992Z,91.10
2017-11-10T05:15:22.592Z,115.37
2017-11-10T05:17:50.926Z,91.83
2017-11-10T05:20:19.313Z,112.37
2017-11-10T05:22:47.654Z,115.67
2017-11-10T05:25:16.879Z,110.07
2017-11-10T05:27:46.519Z,100.03
2017-11-10T05:30:15.626Z,93.73
2017-11-10T05:32:44.446Z,90.90
2017-11-10T05:35:13.031Z,90.73
2017-11-10T05:37:41.387Z,92.43
2017-11-10T05:40:10.422Z,87.97
2017-11-10T05:42:39.424Z,101.73
2017-11-10T05:45:09.134Z,84.53
2017-11-10T05:47:37.478Z,105.53
2017-11-10T05:50:05.855Z,91.90
2017-11-10T05:52:34.205Z,105.93
2017-11-10T05:55:02.550Z,97.43
2017-11-10T05:57:32.642Z,95.60
2017-11-10T06:00:00.985Z,91.07
2017-11-10T06:02:29.363Z,98.07
2017-11-10T06:04:58.350Z,100.73
2017-11-10T06:07:26.687Z,97.97
2017-11-10T06:09:55.991Z,97.90
2017-11-10T06:12:24.405Z,99.43
2017-11-10T06:14:53.539Z,102.40
2017-11-10T06:17:21.878Z,82.80
2017-11-10T06:19:51.258Z,95.90
2017-11-10T06:22:20.379Z,88.67
2017-11-10T06:24:48.723Z,95.47
2017-11-10T06:27:17.100Z,89.63
2017-11-10T06:29:46.433Z,91.93
2017-11-10T06:32:14.985Z,77.43
2017-11-10T06:34:43.640Z,66.60
2017-11-10T06:37:11.981Z,83.83
2017-11-10T06:39:41.072Z,75.03
2017-11-10T06:42:09.520Z,73.20
2017-11-10T06:44:37.871Z,69.63
2017-11-10T06:47:07.433Z,65.23
2017-11-10T06:49:36.575Z,56.17
2017-11-10T06:52:04.915Z,61.07
2017-11-10T06:54:33.256Z,64.73
2017-11-10T06:57:01.639Z,54.90
2017-11-10T06:59:29.977Z,57.63
2017-11-10T07:01:58.303Z,45.73
2017-11-10T07:04:26.826Z,63.53
2017-11-10T07:06:55.285Z,58.20
2017-11-10T07:09:24.288Z,43.43
2017-11-10T07:11:52.664Z,48.90
2017-11-10T07:14:21.777Z,49.53
2017-11-10T07:16:51.478Z,48.67
2017-11-10T07:19:20.249Z,50.97
2017-11-10T07:21:48.594Z,59.80
2017-11-10T07:24:16.942Z,49.17
2017-11-10T07:26:46.136Z,42.97
2017-11-10T07:29:15.027Z,44.33
2017-11-10T07:31:43.425Z,56.40
2017-11-10T07:34:11.835Z,48.77
2017-11-10T07:36:40.179Z,44.90
2017-11-10T07:39:08.576Z,45.63
2017-11-10T07:41:37.864Z,37.60
2017-11-10T07:44:06.223Z,47.23
2017-11-10T07:46:34.816Z,41.60
2017-11-10T07:49:04.459Z,46.30
2017-11-10T07:51:33.193Z,36.93
2017-11-10T07:54:03.346Z,46.60
2017-11-10T07:56:31.734Z,44.20
2017-11-10T07:59:00.127Z,43.13
2017-11-10T08:01:29.195Z,33.27
2017-11-10T08:04:01.543Z,38.20
2017-11-10T08:06:29.886Z,40.60
2017-11-10T08:08:59.189Z,42.87
2017-11-10T08:11:28.250Z,36.43
2017-11-10T08:13:58.143Z,42.80
2017-11-10T08:16:26.497Z,38.73
2017-11-10T08:18:55.651Z,39.07
2017-11-10T08:21:24.475Z,41.87
2017-11-10T08:23:54.664Z,43.80
2017-11-10T08:26:23.042Z,43.50
2017-11-10T08:28:51.719Z,44.13
2017-11-10T08:31:20.295Z,43.70
2017-11-10T08:33:49.190Z,49.53
2017-11-10T08:36:17.524Z,48.37
2017-11-10T08:38:46.637Z,42.40
2017-11-10T08:41:15.698Z,45.67
2017-11-10T08:43:44.073Z,40.73
2017-11-10T08:46:13.292Z,37.63
2017-11-10T08:48:43.227Z,44.50
2017-11-10T08:51:12.450Z,46.83
2017-11-10T08:53:40.798Z,44.50
2017-11-10T08:56:09.781Z,36.83
2017-11-10T08:58:38.881Z,42.93
2017-11-10T09:01:07.276Z,52.80
2017-11-10T09:03:35.926Z,50.07
2017-11-10T09:06:04.287Z,49.67
2017-11-10T09:08:32.643Z,52.93
2017-11-10T09:11:01.018Z,43.67
2017-11-10T09:13:29.771Z,47.07
2017-11-10T09:15:59.583Z,46.00
2017-11-10T09:18:28.666Z,42.87
2017-11-10T09:20:58.020Z,37.00
2017-11-10T09:23:26.738Z,40.33
2017-11-10T09:25:55.096Z,52.53
2017-11-10T09:28:28.696Z,49.17
2017-11-10T09:31:04.234Z,41.87
2017-11-10T09:33:45.257Z,48.37
2017-11-10T09:36:20.358Z,38.30
2017-11-10T09:42:19.240Z,33.23
2017-11-10T09:44:47.586Z,36.17
2017-11-10T09:50:42.047Z,33.40
2017-11-10T09:53:11.773Z,26.50
2017-11-10T09:55:43.438Z,36.23
2017-11-10T10:01:42.595Z,25.70
2017-11-10T10:04:13.197Z,27.20
2017-11-10T10:06:44.274Z,27.90
2017-11-10T10:12:21.356Z,23.10
2017-11-10T10:18:02.084Z,29.33
2017-11-10T10:20:34.867Z,16.57
2017-11-10T10:23:03.218Z,16.07
2017-11-10T10:25:32.348Z,14.60
2017-11-10T10:28:00.954Z,22.53
2017-11-10T10:30:29.918Z,16.53
2017-11-10T10:32:58.259Z,18.43
2017-11-10T10:35:26.692Z,11.23
2017-11-10T10:37:55.055Z,26.30
2017-11-10T10:40:24.298Z,11.73
2017-11-10T10:42:53.649Z,16.40
2017-11-10T10:45:22.001Z,14.03
2017-11-10T10:47:50.357Z,17.77
2017-11-10T10:50:18.930Z,22.10
2017-11-10T10:52:48.750Z,18.20
2017-11-10T10:55:17.103Z,17.60
2017-11-10T10:57:46.104Z,16.97
2017-11-10T11:00:14.454Z,23.87
2017-11-10T11:02:42.855Z,16.67
2017-11-10T11:05:11.238Z,19.93
2017-11-10T11:07:39.599Z,17.60
2017-11-10T11:10:07.953Z,19.30
2017-11-10T11:12:37.871Z,16.10
2017-11-10T11:15:07.492Z,17.70
2017-11-10T11:17:36.596Z,14.90
2017-11-10T11:20:05.833Z,16.17
2017-11-10T11:22:34.387Z,29.90
2017-11-10T11:25:02.754Z,16.03
2017-11-10T11:27:31.347Z,19.97
2017-11-10T11:29:59.707Z,20.90
2017-11-10T11:32:28.094Z,19.90
2017-11-10T11:34:57.279Z,14.70
2017-11-10T11:37:26.403Z,18.90
2017-11-10T11:39:54.754Z,16.13
2017-11-10T11:42:24.125Z,16.37
2017-11-10T11:44:52.750Z,31.57
2017-11-10T11:47:21.868Z,16.67
2017-11-10T11:49:50.256Z,14.43
2017-11-10T11:52:18.989Z,28.73
2017-11-10T11:54:47.354Z,25.57
2017-11-10T11:57:16.366Z,26.33
2017-11-10T11:59:44.715Z,33.90
2017-11-10T12:02:13.391Z,27.43
2017-11-10T12:04:42.468Z,25.73
2017-11-10T12:07:11.152Z,24.60
2017-11-10T12:09:41.053Z,38.43
2017-11-10T20:21:09.749Z,6.43
2017-11-10T20:23:38.559Z,12.23
2017-11-10T20:26:06.910Z,4.30
2017-11-10T20:28:35.502Z,3.25
2017-11-10T20:31:03.844Z,11.23
2017-11-10T20:33:32.231Z,2.60
2017-11-10T20:36:01.680Z,9.35
2017-11-10T20:38:30.023Z,10.63
2017-11-10T20:40:59.487Z,5.28
2017-11-10T20:43:28.925Z,5.80
2017-11-10T20:45:58.303Z,4.00
2017-11-10T20:48:26.921Z,6.93
2017-11-10T20:50:55.500Z,8.15
2017-11-10T20:53:23.856Z,3.03
2017-11-10T20:55:52.224Z,9.40
2017-11-10T20:58:21.166Z,3.45
2017-11-10T21:00:49.518Z,3.17
2017-11-10T21:03:18.761Z,6.47
2017-11-10T21:05:47.176Z,9.70
2017-11-10T21:08:16.337Z,7.32
2017-11-10T21:10:45.208Z,7.80
2017-11-10T21:13:14.450Z,12.37
2017-11-10T21:15:43.505Z,5.40
2017-11-10T21:18:11.869Z,3.85
2017-11-10T21:20:41.562Z,2.17
2017-11-10T21:23:10.478Z,1.77
2017-11-10T21:25:38.847Z,4.75
2017-11-10T21:28:08.063Z,2.45
2017-11-10T21:30:37.385Z,6.03
2017-11-10T21:33:05.731Z,5.15
2017-11-10T21:35:34.103Z,1.98
2017-11-10T21:38:02.464Z,4.45
2017-11-10T21:40:31.681Z,1.98
2017-11-10T21:43:01.068Z,4.70
2017-11-10T21:45:30.554Z,8.77
2017-11-10T21:47:59.014Z,2.50
2017-11-10T21:50:27.818Z,5.32
2017-11-10T21:52:57.050Z,2.28
2017-11-10T21:55:26.199Z,2.15
2017-11-10T21:57:54.710Z,3.08
2017-11-10T22:00:23.072Z,7.93
2017-11-10T22:02:51.426Z,2.85
2017-11-10T22:05:19.797Z,1.87
2017-11-10T22:07:48.913Z,1.73
2017-11-10T22:10:17.232Z,4.40
2017-11-10T22:12:45.748Z,1.92
2017-11-10T22:15:14.081Z,2.55
2017-11-10T22:17:42.424Z,2.55
2017-11-10T22:20:10.835Z,1.60
2017-11-10T22:22:39.859Z,6.05
2017-11-10T22:25:11.394Z,4.25
2017-11-10T22:27:39.791Z,4.32
2017-11-10T22:30:08.899Z,4.00
2017-11-10T22:32:37.971Z,3.92
2017-11-10T22:35:06.552Z,4.68
2017-11-10T22:37:34.874Z,7.10
2017-11-10T22:40:03.954Z,9.27
2017-11-10T22:42:32.340Z,10.40
2017-11-10T22:45:00.711Z,5.25
2017-11-10T22:47:29.817Z,6.93
2017-11-10T22:49:59.351Z,4.32
2017-11-10T22:52:27.985Z,6.78
2017-11-10T22:54:57.103Z,10.45
2017-11-10T22:57:25.588Z,4.90
2017-11-10T22:59:53.963Z,4.75
2017-11-10T23:02:22.309Z,8.32
2017-11-10T23:04:50.794Z,4.68
2017-11-10T23:07:19.138Z,6.28
2017-11-10T23:09:47.514Z,5.53
2017-11-10T23:12:15.935Z,3.95
2017-11-10T23:14:44.301Z,7.45
2017-11-10T23:17:12.668Z,8.32
2017-11-10T23:19:42.212Z,5.18
2017-11-10T23:22:10.557Z,4.65
2017-11-10T23:24:39.245Z,7.18
2017-11-10T23:27:08.480Z,7.82
2017-11-10T23:29:36.837Z,10.80
2017-11-10T23:32:05.762Z,4.97
2017-11-10T23:34:34.174Z,6.05
2017-11-10T23:37:03.486Z,7.22
2017-11-10T23:39:32.279Z,5.00
2017-11-10T23:42:00.894Z,10.75
2017-11-10T23:44:29.287Z,2.95
2017-11-10T23:46:59.023Z,5.12
2017-11-10T23:49:27.946Z,6.20
2017-11-10T23:51:56.326Z,4.35
2017-11-10T23:54:24.725Z,2.25
2017-11-10T23:56:54.228Z,12.18
2017-11-10T23:59:22.618Z,5.05
